Time;durP1;ratioP1;P1;durP2;ratioP2;P2;SDS_P1;SDS_P2;PMS_P1;PMS_P2;Temp;Humidity;BMP_temperature;BMP_pressure;BME280_temperature;BME280_humidity;BME280_pressure;Samples;Min_cycle;Max_cycle;Signal;HPM_P1;HPM_P2
2022/01/26 00:00:57;;;;;;;63.95;18.33;;;;;;;;;;5023106;28;20134;-56
2022/01/26 00:06:12;;;;;;;72.93;18.83;;;;;;;;;;5041006;28;20135;-55
2022/01/26 00:08:39;;;;;;;72.85;20.73;;;;;;;;;;5044828;28;20057;-60
2022/01/26 00:11:07;;;;;;;86.47;22.55;;;;;;;;;;5025655;28;20058;-56
2022/01/26 00:13:41;;;;;;;69.07;20.05;;;;;;;;;;5047904;28;20067;-57
2022/01/26 00:16:13;;;;;;;67.13;19.55;;;;;;;;;;5060806;28;20129;-53
2022/01/26 00:18:40;;;;;;;71.85;20.85;;;;;;;;;;5029157;28;20060;-59
2022/01/26 00:21:13;;;;;;;80.65;22.67;;;;;;;;;;5046359;28;20049;-55
2022/01/26 00:24:06;;;;;;;53.28;17.48;;;;;;;;;;5045834;28;20103;-59
2022/01/26 00:26:38;;;;;;;72.72;18.17;;;;;;;;;;5043804;28;20059;-52
2022/01/26 00:29:11;;;;;;;72.70;20.70;;;;;;;;;;5048492;28;20049;-60
2022/01/26 00:39:53;;;;;;;69.13;19.05;;;;;;;;;;5062751;28;20091;-55
2022/01/26 00:42:19;;;;;;;82.32;20.05;;;;;;;;;;5022626;28;20136;-59
2022/01/26 00:44:49;;;;;;;59.50;17.52;;;;;;;;;;5030591;28;20128;-60
2022/01/26 00:47:16;;;;;;;78.63;21.83;;;;;;;;;;5045054;28;20053;-57
2022/01/26 00:49:43;;;;;;;67.93;19.35;;;;;;;;;;5061815;28;20085;-59
2022/01/26 00:52:13;;;;;;;74.07;21.10;;;;;;;;;;5030754;28;20324;-60
2022/01/26 00:54:40;;;;;;;65.68;17.42;;;;;;;;;;5023652;28;20056;-58
2022/01/26 00:57:07;;;;;;;71.00;19.15;;;;;;;;;;5028142;28;20152;-55
2022/01/26 00:59:33;;;;;;;73.07;20.15;;;;;;;;;;5022593;28;20144;-56
2022/01/26 01:02:01;;;;;;;69.47;19.17;;;;;;;;;;5027871;28;20053;-59
2022/01/26 01:04:28;;;;;;;73.10;18.92;;;;;;;;;;5030140;28;20065;-59
2022/01/26 01:06:59;;;;;;;63.95;18.20;;;;;;;;;;5028423;28;20410;-56
2022/01/26 01:09:30;;;;;;;63.05;18.08;;;;;;;;;;5027945;28;20063;-58
2022/01/26 01:11:57;;;;;;;69.78;19.17;;;;;;;;;;5047462;28;20080;-56
2022/01/26 01:14:25;;;;;;;69.00;19.20;;;;;;;;;;5040911;28;20081;-59
2022/01/26 01:16:53;;;;;;;66.40;19.08;;;;;;;;;;5047436;28;20065;-59
2022/01/26 01:19:32;;;;;;;68.57;18.73;;;;;;;;;;5041918;28;20072;-59
2022/01/26 01:22:30;;;;;;;57.97;15.77;;;;;;;;;;5047601;28;20056;-57
2022/01/26 01:25:43;;;;;;;63.83;16.88;;;;;;;;;;5041406;28;20090;-59
2022/01/26 01:28:21;;;;;;;58.97;16.10;;;;;;;;;;5025881;28;20049;-59
2022/01/26 01:30:52;;;;;;;54.38;17.63;;;;;;;;;;5017573;28;20411;-59
2022/01/26 01:33:22;;;;;;;78.70;20.35;;;;;;;;;;5027466;28;20063;-57
2022/01/26 01:35:51;;;;;;;74.53;19.35;;;;;;;;;;5022966;28;20570;-59
2022/01/26 01:38:19;;;;;;;76.70;20.15;;;;;;;;;;5027117;28;20120;-60
2022/01/26 01:40:47;;;;;;;67.97;18.02;;;;;;;;;;5022974;28;20061;-60
2022/01/26 01:43:20;;;;;;;66.18;19.10;;;;;;;;;;5026897;28;20061;-56
2022/01/26 01:45:49;;;;;;;65.25;19.33;;;;;;;;;;5020278;28;20111;-57
2022/01/26 01:48:19;;;;;;;71.78;19.42;;;;;;;;;;5025457;28;20526;-58
2022/01/26 01:50:46;;;;;;;73.97;18.55;;;;;;;;;;4997532;28;20073;-57
2022/01/26 01:53:17;;;;;;;64.47;18.90;;;;;;;;;;5007289;28;20164;-60
2022/01/26 01:55:46;;;;;;;60.45;18.10;;;;;;;;;;5018393;28;20100;-56
2022/01/26 01:58:13;;;;;;;71.82;20.88;;;;;;;;;;5007310;28;20093;-59
2022/01/26 02:00:40;;;;;;;72.28;20.70;;;;;;;;;;5005869;28;20053;-57
2022/01/26 02:03:08;;;;;;;68.22;19.02;;;;;;;;;;5027087;28;20203;-59
2022/01/26 02:05:34;;;;;;;75.78;19.63;;;;;;;;;;5020655;28;20049;-60
2022/01/26 02:08:01;;;;;;;67.78;18.50;;;;;;;;;;5027481;28;20052;-58
2022/01/26 02:10:31;;;;;;;62.00;16.48;;;;;;;;;;5027428;28;20486;-60
2022/01/26 02:13:00;;;;;;;63.60;17.98;;;;;;;;;;5025203;28;20049;-60
2022/01/26 02:15:32;;;;;;;60.17;17.05;;;;;;;;;;5026681;28;20053;-60
2022/01/26 02:18:24;;;;;;;74.50;20.45;;;;;;;;;;5003739;28;20074;-59
2022/01/26 02:54:36;;;;;;;75.80;19.75;;;;;;;;;;5039635;28;20053;-59
2022/01/26 02:57:15;;;;;;;65.53;17.60;;;;;;;;;;5046148;28;20088;-59
2022/01/26 03:02:34;;;;;;;67.93;17.95;;;;;;;;;;5022194;28;20049;-57
2022/01/26 03:05:03;;;;;;;64.13;17.33;;;;;;;;;;5043755;28;20191;-60
2022/01/26 03:07:40;;;;;;;53.90;16.17;;;;;;;;;;5046062;28;20119;-60
2022/01/26 03:10:16;;;;;;;68.68;19.00;;;;;;;;;;5040416;28;20064;-59
2022/01/26 03:12:48;;;;;;;74.78;20.05;;;;;;;;;;5045620;28;20144;-56
2022/01/26 03:15:19;;;;;;;66.15;17.85;;;;;;;;;;5039962;28;20049;-60
2022/01/26 03:18:02;;;;;;;66.47;18.98;;;;;;;;;;5046445;28;20122;-60
2022/01/26 03:20:31;;;;;;;78.78;22.20;;;;;;;;;;5040939;28;20426;-56
2022/01/26 03:28:38;;;;;;;73.10;18.67;;;;;;;;;;5025496;28;20054;-58
2022/01/26 03:33:53;;;;;;;56.97;15.43;;;;;;;;;;5003386;28;20053;-56
2022/01/26 03:36:20;;;;;;;57.25;16.77;;;;;;;;;;5042041;28;20091;-56
2022/01/26 03:38:50;;;;;;;50.92;15.10;;;;;;;;;;5024140;28;20045;-60
2022/01/26 03:41:32;;;;;;;75.40;19.45;;;;;;;;;;5039630;28;20064;-58
2022/01/26 03:43:59;;;;;;;63.10;16.60;;;;;;;;;;5045143;28;20120;-60
2022/01/26 03:46:26;;;;;;;69.72;19.15;;;;;;;;;;5039249;28;20063;-58
2022/01/26 03:48:53;;;;;;;73.20;19.38;;;;;;;;;;5047003;28;20088;-60
2022/01/26 03:51:19;;;;;;;57.47;18.52;;;;;;;;;;5042989;28;20057;-60
2022/01/26 03:53:49;;;;;;;74.95;19.67;;;;;;;;;;5047937;28;20061;-60
2022/01/26 03:56:16;;;;;;;67.38;18.65;;;;;;;;;;5040325;28;20132;-57
2022/01/26 03:58:43;;;;;;;72.13;20.58;;;;;;;;;;5045065;28;20053;-54
2022/01/26 04:01:10;;;;;;;60.63;17.70;;;;;;;;;;5040008;28;20056;-59
2022/01/26 04:03:37;;;;;;;74.93;20.92;;;;;;;;;;5044113;28;20307;-60
2022/01/26 04:06:03;;;;;;;79.75;22.45;;;;;;;;;;5039342;28;20053;-58
2022/01/26 04:08:32;;;;;;;64.40;17.75;;;;;;;;;;5044529;28;20111;-59
2022/01/26 04:11:09;;;;;;;;;;;;;;;;;;5039840;28;20053;-54
2022/01/26 04:13:36;;;;;;;64.28;16.42;;;;;;;;;;5044743;28;19952;-58
2022/01/26 04:16:06;;;;;;;76.40;20.83;;;;;;;;;;5039150;28;20053;-56
2022/01/26 04:18:35;;;;;;;51.03;15.20;;;;;;;;;;5044750;28;20144;-59
2022/01/26 04:21:08;;;;;;;39.92;12.82;;;;;;;;;;5039511;28;20079;-56
2022/01/26 04:23:42;;;;;;;69.78;18.88;;;;;;;;;;5047980;28;20057;-54
2022/01/26 04:26:10;;;;;;;73.57;18.60;;;;;;;;;;5043482;28;20058;-57
2022/01/26 04:28:42;;;;;;;69.25;18.65;;;;;;;;;;5048455;28;20053;-56
2022/01/26 04:31:10;;;;;;;74.53;19.48;;;;;;;;;;5043564;28;20049;-59
2022/01/26 04:33:39;;;;;;;68.78;19.20;;;;;;;;;;5048754;28;20063;-57
2022/01/26 04:36:09;;;;;;;;;;;;;;;;;;5048859;28;20150;-60
2022/01/26 04:38:40;;;;;;;56.60;14.63;;;;;;;;;;5046152;28;19925;-59
2022/01/26 04:41:23;;;;;;;62.63;18.55;;;;;;;;;;5048375;28;20059;-59
2022/01/26 04:43:53;;;;;;;57.63;16.02;;;;;;;;;;5025732;28;20057;-60
2022/01/26 04:46:21;;;;;;;75.15;20.23;;;;;;;;;;5048322;28;20465;-58
2022/01/26 04:48:47;;;;;;;76.45;21.17;;;;;;;;;;5044515;28;20053;-60
2022/01/26 04:51:14;;;;;;;67.45;21.70;;;;;;;;;;5047981;28;20085;-56
2022/01/26 04:53:41;;;;;;;71.57;20.60;;;;;;;;;;5041745;28;20462;-57
2022/01/26 04:56:07;;;;;;;60.22;17.40;;;;;;;;;;5047551;28;20123;-58
2022/01/26 04:58:34;;;;;;;71.32;19.58;;;;;;;;;;5041643;28;20090;-59
2022/01/26 05:01:01;;;;;;;74.68;20.83;;;;;;;;;;5048420;28;20077;-59
2022/01/26 05:03:30;;;;;;;60.75;16.17;;;;;;;;;;5033988;28;20053;-58
2022/01/26 05:05:56;;;;;;;75.20;20.25;;;;;;;;;;5008257;28;20140;-56
2022/01/26 05:08:23;;;;;;;67.53;19.45;;;;;;;;;;5014164;28;20130;-51
2022/01/26 05:10:49;;;;;;;73.55;20.35;;;;;;;;;;5047907;28;20057;-55
2022/01/26 05:13:17;;;;;;;64.82;18.02;;;;;;;;;;5042579;28;20114;-57
2022/01/26 05:15:44;;;;;;;74.60;21.33;;;;;;;;;;5048935;28;20060;-60
2022/01/26 05:18:10;;;;;;;62.95;18.60;;;;;;;;;;5043977;28;20132;-58
2022/01/26 05:20:38;;;;;;;80.20;20.42;;;;;;;;;;5050748;28;20490;-59
2022/01/26 05:23:06;;;;;;;74.00;20.47;;;;;;;;;;5043239;28;20060;-55
2022/01/26 05:25:32;;;;;;;49.35;14.63;;;;;;;;;;5047666;28;20057;-57
2022/01/26 05:27:59;;;;;;;66.28;18.88;;;;;;;;;;5047288;28;20143;-59
2022/01/26 05:30:27;;;;;;;73.20;21.55;;;;;;;;;;5041466;28;20048;-58
2022/01/26 05:32:54;;;;;;;67.93;19.48;;;;;;;;;;5046967;28;20057;-59
2022/01/26 05:35:20;;;;;;;66.65;19.42;;;;;;;;;;5040654;28;20486;-58
2022/01/26 05:37:48;;;;;;;62.67;18.20;;;;;;;;;;5046844;28;20060;-55
2022/01/26 05:40:15;;;;;;;60.13;18.57;;;;;;;;;;5041288;28;20106;-57
2022/01/26 05:42:42;;;;;;;64.93;18.85;;;;;;;;;;5046713;28;20051;-60
2022/01/26 05:45:18;;;;;;;59.00;17.02;;;;;;;;;;5040284;28;20049;-55
2022/01/26 05:47:45;;;;;;;73.07;21.00;;;;;;;;;;5046574;28;20057;-55
2022/01/26 05:50:12;;;;;;;62.15;18.25;;;;;;;;;;5039913;28;20045;-56
2022/01/26 05:52:38;;;;;;;74.05;20.58;;;;;;;;;;5041150;28;20052;-55
2022/01/26 05:55:08;;;;;;;71.65;20.95;;;;;;;;;;5027520;28;20066;-59
2022/01/26 05:57:35;;;;;;;74.13;21.90;;;;;;;;;;5024467;28;20054;-55
2022/01/26 06:00:01;;;;;;;55.22;15.60;;;;;;;;;;5017909;28;20120;-56
2022/01/26 06:02:30;;;;;;;67.00;19.77;;;;;;;;;;5025546;28;20056;-59
2022/01/26 06:04:57;;;;;;;67.68;18.83;;;;;;;;;;5017142;28;20084;-58
2022/01/26 06:07:24;;;;;;;75.68;22.45;;;;;;;;;;5036593;28;20053;-55
2022/01/26 06:09:50;;;;;;;74.82;21.30;;;;;;;;;;5028017;28;20083;-55
2022/01/26 06:12:18;;;;;;;69.30;18.58;;;;;;;;;;5025744;28;20459;-55
2022/01/26 06:14:45;;;;;;;61.33;15.87;;;;;;;;;;5053264;28;20091;-53
2022/01/26 06:17:11;;;;;;;74.25;21.40;;;;;;;;;;5038868;28;20087;-56
2022/01/26 06:19:37;;;;;;;75.35;20.98;;;;;;;;;;5043411;28;20387;-57
2022/01/26 06:22:05;;;;;;;80.32;19.77;;;;;;;;;;5037568;28;20418;-54
2022/01/26 06:24:31;;;;;;;80.70;21.73;;;;;;;;;;5029360;28;20061;-55
2022/01/26 06:26:58;;;;;;;82.13;23.70;;;;;;;;;;5044951;28;20096;-56
2022/01/26 06:29:26;;;;;;;76.82;22.15;;;;;;;;;;5031450;28;20052;-54
2022/01/26 06:31:53;;;;;;;65.97;18.15;;;;;;;;;;5031697;28;20056;-52
2022/01/26 06:34:21;;;;;;;71.05;19.67;;;;;;;;;;5018328;28;20083;-54
2022/01/26 06:36:47;;;;;;;82.85;21.63;;;;;;;;;;5046693;28;20049;-54
2022/01/26 06:39:14;;;;;;;84.47;22.27;;;;;;;;;;5030211;28;20054;-55
2022/01/26 06:41:48;;;;;;;76.10;21.67;;;;;;;;;;5019091;28;20056;-52
2022/01/26 06:44:19;;;;;;;75.80;20.48;;;;;;;;;;5022466;28;20115;-55
2022/01/26 06:46:56;;;;;;;86.07;22.67;;;;;;;;;;5019273;28;20055;-58
2022/01/26 06:49:32;;;;;;;74.47;20.65;;;;;;;;;;5027259;28;20060;-56
2022/01/26 06:51:59;;;;;;;76.22;21.63;;;;;;;;;;5021289;28;20119;-57
2022/01/26 06:54:25;;;;;;;81.82;21.95;;;;;;;;;;5024964;28;20053;-55
2022/01/26 06:56:52;;;;;;;77.18;19.08;;;;;;;;;;5020746;28;20191;-55
2022/01/26 06:59:19;;;;;;;67.00;20.15;;;;;;;;;;5025889;28;20099;-56
2022/01/26 07:01:45;;;;;;;69.90;19.85;;;;;;;;;;5025664;28;20053;-58
2022/01/26 07:04:14;;;;;;;77.72;19.50;;;;;;;;;;5020164;28;20073;-57
2022/01/26 07:06:40;;;;;;;68.25;17.27;;;;;;;;;;5026174;28;20060;-59
2022/01/26 07:09:06;;;;;;;80.45;20.05;;;;;;;;;;5020600;28;20133;-56
2022/01/26 07:11:33;;;;;;;77.30;22.67;;;;;;;;;;5026765;28;20101;-56
2022/01/26 07:14:02;;;;;;;78.43;19.98;;;;;;;;;;5033775;28;20060;-58
2022/01/26 07:22:06;;;;;;;92.38;22.88;;;;;;;;;;4981101;28;20059;-54
2022/01/26 07:24:32;;;;;;;56.25;15.52;;;;;;;;;;5020032;28;20068;-56
2022/01/26 07:26:59;;;;;;;70.03;19.73;;;;;;;;;;5036235;28;20053;-57
2022/01/26 07:29:25;;;;;;;84.25;21.98;;;;;;;;;;5040416;28;20084;-56
2022/01/26 07:31:53;;;;;;;83.80;21.40;;;;;;;;;;5046353;28;20057;-53
2022/01/26 07:34:23;;;;;;;88.15;22.08;;;;;;;;;;5039730;28;20057;-53
2022/01/26 07:36:52;;;;;;;79.70;21.10;;;;;;;;;;5046000;28;20061;-53
2022/01/26 07:39:29;;;;;;;76.05;19.83;;;;;;;;;;5040305;28;20149;-55
2022/01/26 07:41:56;;;;;;;66.05;19.08;;;;;;;;;;5046821;28;20055;-52
2022/01/26 07:44:23;;;;;;;84.78;21.90;;;;;;;;;;5038860;28;20122;-56
2022/01/26 07:46:49;;;;;;;83.00;20.63;;;;;;;;;;5062449;28;20140;-55
2022/01/26 07:49:16;;;;;;;63.83;18.80;;;;;;;;;;5039899;28;20049;-56
2022/01/26 07:51:44;;;;;;;81.18;21.15;;;;;;;;;;5045080;28;20072;-55
2022/01/26 07:54:12;;;;;;;90.27;24.50;;;;;;;;;;5039480;28;20134;-51
2022/01/26 07:56:42;;;;;;;80.95;21.83;;;;;;;;;;5047485;28;20302;-56
2022/01/26 07:59:09;;;;;;;80.95;21.48;;;;;;;;;;5043562;28;20126;-56
2022/01/26 08:01:38;;;;;;;82.45;20.40;;;;;;;;;;5049220;28;20086;-54
2022/01/26 08:04:07;;;;;;;75.53;21.02;;;;;;;;;;5049275;28;20056;-51
2022/01/26 08:06:33;;;;;;;69.10;19.30;;;;;;;;;;5042979;28;20061;-56
2022/01/26 08:09:01;;;;;;;82.55;20.50;;;;;;;;;;5049393;28;20057;-56
2022/01/26 08:11:27;;;;;;;70.20;19.17;;;;;;;;;;5043809;28;20076;-57
2022/01/26 08:13:56;;;;;;;72.60;19.55;;;;;;;;;;5049242;28;20095;-60
2022/01/26 08:16:23;;;;;;;69.07;18.65;;;;;;;;;;5043574;28;20057;-56
2022/01/26 08:18:49;;;;;;;82.13;23.23;;;;;;;;;;5050598;28;20053;-57
2022/01/26 08:21:18;;;;;;;77.97;20.88;;;;;;;;;;5044888;28;20060;-52
2022/01/26 08:23:45;;;;;;;70.68;19.75;;;;;;;;;;5044319;28;20061;-56
2022/01/26 08:26:13;;;;;;;65.20;18.65;;;;;;;;;;5042874;28;20079;-54
2022/01/26 08:28:42;;;;;;;;;;;;;;;;;;5048986;28;20135;-57
2022/01/26 08:31:09;;;;;;;61.72;16.58;;;;;;;;;;5043160;28;19964;-56
2022/01/26 08:33:36;;;;;;;73.13;20.60;;;;;;;;;;5048425;28;20419;-56
2022/01/26 08:36:03;;;;;;;78.32;22.00;;;;;;;;;;5042767;28;20063;-55
2022/01/26 08:38:29;;;;;;;67.07;19.30;;;;;;;;;;5048206;28;20110;-53
2022/01/26 08:40:56;;;;;;;62.85;18.15;;;;;;;;;;5042834;28;20053;-54
2022/01/26 08:43:24;;;;;;;68.93;17.42;;;;;;;;;;5047727;28;20041;-56
2022/01/26 08:45:50;;;;;;;69.15;18.23;;;;;;;;;;5046253;28;20056;-56
2022/01/26 08:48:17;;;;;;;62.58;18.13;;;;;;;;;;5045497;28;20058;-56
2022/01/26 08:50:43;;;;;;;63.90;18.10;;;;;;;;;;5048253;28;20067;-53
2022/01/26 08:53:10;;;;;;;59.17;18.02;;;;;;;;;;5040419;28;20064;-54
2022/01/26 08:55:37;;;;;;;73.10;21.10;;;;;;;;;;5047493;28;20071;-52
2022/01/26 08:58:04;;;;;;;79.30;22.33;;;;;;;;;;5042125;28;20056;-52
2022/01/26 09:00:32;;;;;;;68.93;19.58;;;;;;;;;;5047618;28;20061;-54
2022/01/26 09:02:59;;;;;;;71.25;20.23;;;;;;;;;;5041548;28;20068;-54
2022/01/26 09:05:26;;;;;;;55.00;16.85;;;;;;;;;;5047852;28;20056;-53
2022/01/26 09:07:56;;;;;;;68.80;18.50;;;;;;;;;;5041303;28;20075;-54
2022/01/26 09:10:26;;;;;;;58.50;18.05;;;;;;;;;;5047872;28;20130;-53
2022/01/26 09:12:52;;;;;;;63.90;19.60;;;;;;;;;;5041856;28;20049;-56
2022/01/26 09:15:19;;;;;;;64.88;18.48;;;;;;;;;;5041081;28;20057;-57
2022/01/26 09:17:46;;;;;;;56.53;18.15;;;;;;;;;;5023923;28;20113;-56
2022/01/26 09:20:14;;;;;;;60.38;16.35;;;;;;;;;;5027602;28;20138;-54
2022/01/26 09:22:40;;;;;;;45.97;13.70;;;;;;;;;;5005926;28;20053;-54
2022/01/26 09:25:08;;;;;;;58.20;18.63;;;;;;;;;;5034957;28;20049;-54
2022/01/26 09:27:36;;;;;;;59.90;17.52;;;;;;;;;;5034554;28;20068;-57
2022/01/26 09:30:06;;;;;;;50.00;15.70;;;;;;;;;;5007824;28;20088;-54
2022/01/26 09:32:32;;;;;;;48.05;16.73;;;;;;;;;;5024290;28;20050;-52
2022/01/26 09:35:00;;;;;;;59.42;17.52;;;;;;;;;;5020598;28;20132;-54
2022/01/26 09:37:27;;;;;;;56.10;18.20;;;;;;;;;;5026991;28;20050;-54
2022/01/26 09:39:54;;;;;;;60.40;18.30;;;;;;;;;;5021889;28;20115;-57
2022/01/26 09:42:21;;;;;;;46.13;15.65;;;;;;;;;;5027632;28;20145;-53
2022/01/26 09:44:47;;;;;;;62.00;17.67;;;;;;;;;;5021440;28;20113;-54
2022/01/26 09:47:14;;;;;;;56.45;17.40;;;;;;;;;;5028671;28;20054;-56
2022/01/26 09:49:40;;;;;;;53.50;18.60;;;;;;;;;;5022258;28;20068;-56
2022/01/26 09:52:14;;;;;;;44.17;14.75;;;;;;;;;;5028023;28;20069;-54
2022/01/26 09:54:41;;;;;;;59.08;18.70;;;;;;;;;;5021418;28;20056;-54
2022/01/26 09:57:07;;;;;;;58.47;18.50;;;;;;;;;;5026915;28;20530;-56
2022/01/26 09:59:34;;;;;;;57.10;19.25;;;;;;;;;;5021102;28;20073;-55
2022/01/26 10:02:01;;;;;;;55.75;16.00;;;;;;;;;;5027071;28;20146;-55
2022/01/26 10:04:29;;;;;;;58.22;18.65;;;;;;;;;;5020464;28;20041;-57
2022/01/26 10:06:59;;;;;;;48.60;16.13;;;;;;;;;;5026471;28;20057;-55
2022/01/26 10:17:40;;;;;;;47.03;16.25;;;;;;;;;;5043036;28;20048;-54
2022/01/26 10:20:09;;;;;;;54.95;17.25;;;;;;;;;;5026557;28;20146;-54
2022/01/26 10:22:36;;;;;;;49.67;17.17;;;;;;;;;;5045981;28;20065;-52
2022/01/26 10:25:07;;;;;;;56.33;16.55;;;;;;;;;;5040241;28;20065;-54
2022/01/26 10:27:38;;;;;;;52.08;15.73;;;;;;;;;;5045817;28;20064;-58
2022/01/26 10:30:06;;;;;;;55.03;18.00;;;;;;;;;;5040608;28;20143;-50
2022/01/26 10:32:33;;;;;;;47.20;16.45;;;;;;;;;;5042066;28;20117;-58
2022/01/26 10:35:01;;;;;;;54.63;18.38;;;;;;;;;;5026434;28;20136;-53
2022/01/26 10:37:27;;;;;;;51.20;16.27;;;;;;;;;;5040179;28;20053;-55
2022/01/26 10:39:57;;;;;;;55.15;17.95;;;;;;;;;;5046739;28;20048;-57
2022/01/26 10:42:26;;;;;;;55.70;17.40;;;;;;;;;;5020736;28;20050;-54
2022/01/26 10:45:03;;;;;;;54.67;16.55;;;;;;;;;;5014165;28;20128;-53
2022/01/26 10:47:34;;;;;;;46.75;14.55;;;;;;;;;;5021552;28;20059;-53
2022/01/26 10:50:30;;;;;;;50.50;14.90;;;;;;;;;;5027111;28;20150;-56
2022/01/26 10:53:05;;;;;;;46.20;15.27;;;;;;;;;;5038151;28;20507;-55
2022/01/26 10:55:32;;;;;;;44.70;13.70;;;;;;;;;;5045442;28;20548;-58
2022/01/26 10:58:00;;;;;;;48.53;14.57;;;;;;;;;;5039164;28;20073;-53
2022/01/26 11:00:27;;;;;;;50.63;15.00;;;;;;;;;;5045652;28;20081;-52
2022/01/26 11:02:57;;;;;;;45.95;14.57;;;;;;;;;;5039261;28;20179;-56
2022/01/26 11:05:24;;;;;;;36.55;11.23;;;;;;;;;;5045387;28;20048;-55
2022/01/26 11:07:51;;;;;;;40.70;13.75;;;;;;;;;;5039539;28;20049;-53
2022/01/26 11:10:18;;;;;;;33.45;11.77;;;;;;;;;;5046282;28;20080;-56
2022/01/26 11:12:45;;;;;;;36.83;12.77;;;;;;;;;;5039069;28;20049;-55
2022/01/26 11:15:14;;;;;;;41.17;12.32;;;;;;;;;;5029220;28;20055;-57
2022/01/26 11:17:43;;;;;;;46.88;12.80;;;;;;;;;;5040845;28;20118;-56
2022/01/26 11:20:17;;;;;;;37.47;10.85;;;;;;;;;;5047116;28;20053;-58
2022/01/26 11:22:50;;;;;;;33.97;10.30;;;;;;;;;;5054483;28;20045;-55
2022/01/26 11:25:17;;;;;;;40.28;12.05;;;;;;;;;;5041766;28;20060;-56
2022/01/26 11:27:44;;;;;;;40.17;11.70;;;;;;;;;;5035134;28;20129;-56
2022/01/26 11:30:19;;;;;;;34.53;11.95;;;;;;;;;;5025498;28;20148;-55
2022/01/26 11:32:50;;;;;;;38.33;12.18;;;;;;;;;;5024013;28;20064;-53
2022/01/26 11:35:17;;;;;;;30.40;11.38;;;;;;;;;;5028936;28;20068;-58
2022/01/26 11:37:48;;;;;;;43.25;10.73;;;;;;;;;;5023916;28;20049;-56
2022/01/26 11:46:06;;;;;;;34.38;12.38;;;;;;;;;;5028281;28;20045;-56
2022/01/26 11:48:32;;;;;;;36.78;11.25;;;;;;;;;;5033304;28;20045;-52
2022/01/26 11:51:00;;;;;;;50.15;13.45;;;;;;;;;;5029485;28;20099;-52
2022/01/26 11:53:28;;;;;;;36.78;9.82;;;;;;;;;;5022577;28;20053;-55
2022/01/26 11:56:01;;;;;;;41.95;13.07;;;;;;;;;;5029227;28;20057;-54
2022/01/26 11:58:33;;;;;;;34.10;11.15;;;;;;;;;;5023479;28;20056;-51
2022/01/26 12:01:12;;;;;;;38.75;11.77;;;;;;;;;;5029023;28;20061;-51
2022/01/26 12:03:46;;;;;;;40.25;11.63;;;;;;;;;;5059811;28;20144;-53
2022/01/26 12:06:19;;;;;;;38.90;13.07;;;;;;;;;;5027215;28;20103;-53
2022/01/26 12:08:45;;;;;;;38.55;12.77;;;;;;;;;;5025874;28;20132;-55
2022/01/26 12:11:14;;;;;;;38.75;12.65;;;;;;;;;;5027788;28;20164;-57
2022/01/26 12:13:41;;;;;;;45.55;12.13;;;;;;;;;;5029253;28;20077;-56
2022/01/26 12:16:12;;;;;;;32.15;10.68;;;;;;;;;;5026595;28;20391;-57
2022/01/26 12:18:45;;;;;;;40.50;12.27;;;;;;;;;;5048954;28;20091;-56
2022/01/26 12:32:30;;;;;;;53.05;11.30;;;;;;;;;;5012084;28;20092;-51
2022/01/26 12:35:04;;;;;;;39.90;12.00;;;;;;;;;;5004623;28;20057;-56
2022/01/26 12:37:38;;;;;;;34.38;11.57;;;;;;;;;;5019971;28;20064;-54
2022/01/26 12:43:05;;;;;;;42.42;11.90;;;;;;;;;;5027449;28;20051;-57
2022/01/26 12:45:32;;;;;;;44.33;12.65;;;;;;;;;;5023494;28;20057;-60
2022/01/26 12:48:00;;;;;;;49.13;14.10;;;;;;;;;;5030667;28;20057;-58
2022/01/26 12:50:28;;;;;;;36.03;13.32;;;;;;;;;;5025040;28;20049;-56
2022/01/26 12:52:56;;;;;;;33.17;12.55;;;;;;;;;;5027743;28;20107;-54
2022/01/26 12:55:24;;;;;;;36.30;12.88;;;;;;;;;;5035980;28;20057;-56
2022/01/26 12:57:51;;;;;;;33.70;11.68;;;;;;;;;;5042442;28;20049;-58
2022/01/26 13:00:18;;;;;;;37.08;11.50;;;;;;;;;;5047931;28;20076;-56
2022/01/26 13:02:44;;;;;;;37.72;12.63;;;;;;;;;;5041695;28;20121;-53
2022/01/26 13:05:14;;;;;;;42.13;13.50;;;;;;;;;;5047470;28;20077;-57
2022/01/26 13:07:41;;;;;;;36.45;12.77;;;;;;;;;;5042240;28;20156;-55
2022/01/26 13:10:14;;;;;;;40.60;12.27;;;;;;;;;;5039296;28;20064;-56
2022/01/26 13:12:41;;;;;;;34.00;10.38;;;;;;;;;;5021929;28;20054;-56
2022/01/26 13:15:14;;;;;;;44.28;11.98;;;;;;;;;;5043782;28;20123;-56
2022/01/26 13:17:45;;;;;;;36.28;9.90;;;;;;;;;;5038001;28;20223;-56
2022/01/26 13:20:25;;;;;;;39.08;11.05;;;;;;;;;;5028154;28;20053;-53
2022/01/26 13:23:02;;;;;;;34.05;10.60;;;;;;;;;;5037133;28;20049;-52
2022/01/26 13:25:34;;;;;;;29.27;10.57;;;;;;;;;;5046646;28;20056;-57
2022/01/26 13:31:11;;;;;;;36.97;10.65;;;;;;;;;;5044933;28;20130;-56
2022/01/26 13:36:53;;;;;;;31.13;8.98;;;;;;;;;;5007645;28;20082;-59
2022/01/26 13:39:35;;;;;;;36.78;10.88;;;;;;;;;;5019658;28;20072;-56
2022/01/26 13:42:51;;;;;;;38.70;12.88;;;;;;;;;;5027960;28;20061;-56
2022/01/26 13:50:59;;;;;;;34.53;10.48;;;;;;;;;;5047270;28;20056;-58
2022/01/26 13:53:36;;;;;;;40.85;11.85;;;;;;;;;;5037418;28;20081;-55
2022/01/26 13:56:11;;;;;;;30.55;10.60;;;;;;;;;;5038700;28;20052;-55
2022/01/26 13:58:57;;;;;;;38.38;12.73;;;;;;;;;;5041251;28;20044;-55
2022/01/26 14:01:23;;;;;;;38.85;10.73;;;;;;;;;;5033074;28;20057;-53
2022/01/26 14:03:54;;;;;;;37.17;12.35;;;;;;;;;;5021069;28;20054;-54
2022/01/26 14:06:21;;;;;;;34.72;11.52;;;;;;;;;;5026993;28;20049;-55
2022/01/26 14:08:49;;;;;;;43.42;11.32;;;;;;;;;;5022097;28;20052;-58
2022/01/26 14:11:16;;;;;;;34.50;11.43;;;;;;;;;;5027047;28;20054;-58
2022/01/26 14:13:44;;;;;;;36.88;11.70;;;;;;;;;;5021441;28;20443;-57
2022/01/26 14:16:11;;;;;;;40.28;13.55;;;;;;;;;;5027748;28;20053;-56
2022/01/26 14:19:01;;;;;;;40.92;13.55;;;;;;;;;;5027302;28;20123;-56
2022/01/26 14:21:32;;;;;;;33.08;10.57;;;;;;;;;;5005767;28;20136;-53
2022/01/26 14:26:52;;;;;;;43.58;13.20;;;;;;;;;;5015489;28;20056;-55
2022/01/26 14:29:34;;;;;;;35.67;11.88;;;;;;;;;;5020801;28;20064;-52
2022/01/26 14:32:14;;;;;;;39.85;11.77;;;;;;;;;;5026475;28;20139;-57
2022/01/26 18:04:44;;;;;;;43.00;16.00;;;;;;;;;;4964070;28;20081;-56
2022/01/26 18:13:00;;;;;;;42.67;15.02;;;;;;;;;;4982919;28;20132;-58
2022/01/26 18:13:18;;;;;;;41.63;15.00;;;;;;;;;;4984332;28;20056;-58
2022/01/26 18:15:48;;;;;;;56.67;16.75;;;;;;;;;;4991934;28;20061;-59
2022/01/26 18:26:30;;;;;;;62.45;21.33;;;;;;;;;;5017719;28;20056;-58
2022/01/26 18:50:46;;;;;;;51.10;15.25;;;;;;;;;;5017568;28;20081;-57
2022/01/26 18:53:15;;;;;;;43.67;14.93;;;;;;;;;;4997362;28;20062;-56
2022/01/26 18:55:41;;;;;;;47.00;15.95;;;;;;;;;;4998380;28;20054;-56
2022/01/26 18:58:08;;;;;;;58.72;15.73;;;;;;;;;;5019189;28;20141;-57
2022/01/26 19:00:35;;;;;;;46.30;14.95;;;;;;;;;;4981790;28;20057;-55
2022/01/26 19:03:01;;;;;;;46.33;16.02;;;;;;;;;;4985355;28;20147;-54
2022/01/26 19:05:28;;;;;;;50.60;16.20;;;;;;;;;;4986801;28;20137;-55
2022/01/26 19:07:56;;;;;;;43.95;16.25;;;;;;;;;;4980717;28;20046;-58
2022/01/26 19:10:24;;;;;;;46.90;15.67;;;;;;;;;;4981723;28;20076;-59
2022/01/26 19:12:51;;;;;;;53.80;17.05;;;;;;;;;;5008971;28;20301;-55
2022/01/26 19:15:22;;;;;;;53.72;16.23;;;;;;;;;;4964603;28;20149;-56
2022/01/26 19:17:53;;;;;;;40.95;12.35;;;;;;;;;;4983334;28;20060;-59
2022/01/26 19:20:35;;;;;;;48.55;15.65;;;;;;;;;;4996713;28;20496;-55
2022/01/26 19:25:49;;;;;;;50.67;16.10;;;;;;;;;;4976654;28;20041;-57
2022/01/26 19:28:24;;;;;;;48.83;16.60;;;;;;;;;;5018212;28;20058;-59
2022/01/26 19:45:32;;;;;;;65.10;16.85;;;;;;;;;;5083003;28;20131;-55
2022/01/26 19:50:49;;;;;;;46.40;15.45;;;;;;;;;;5078630;28;20059;-61
2022/01/26 19:53:16;;;;;;;54.17;15.93;;;;;;;;;;5072266;28;20052;-59
2022/01/26 19:55:43;;;;;;;53.55;16.30;;;;;;;;;;5081114;28;20117;-60
2022/01/26 19:58:10;;;;;;;50.60;15.55;;;;;;;;;;5073833;28;20090;-57
2022/01/26 20:00:36;;;;;;;45.72;15.05;;;;;;;;;;5082161;28;20094;-60
2022/01/26 20:03:03;;;;;;;49.92;14.85;;;;;;;;;;5077756;28;20130;-60
2022/01/26 20:05:33;;;;;;;50.58;15.93;;;;;;;;;;5091574;28;20052;-60
2022/01/26 20:08:07;;;;;;;45.88;14.75;;;;;;;;;;5076350;28;20044;-57
2022/01/26 20:10:40;;;;;;;49.38;15.43;;;;;;;;;;5083253;28;20048;-59
2022/01/26 20:13:19;;;;;;;52.33;17.27;;;;;;;;;;5077804;28;20048;-57
2022/01/26 20:15:46;;;;;;;47.65;14.38;;;;;;;;;;5083720;28;20052;-58
2022/01/26 20:18:13;;;;;;;52.05;17.00;;;;;;;;;;5076910;28;20057;-59
2022/01/26 20:20:39;;;;;;;51.55;15.88;;;;;;;;;;5079242;28;20169;-58
2022/01/26 20:23:12;;;;;;;50.13;14.68;;;;;;;;;;5081566;28;20058;-57
2022/01/26 20:25:38;;;;;;;57.47;17.60;;;;;;;;;;5083436;28;20112;-56
2022/01/26 20:28:08;;;;;;;49.85;15.77;;;;;;;;;;5081105;28;20045;-59
2022/01/26 20:30:38;;;;;;;51.25;15.60;;;;;;;;;;5077767;28;20048;-60
2022/01/26 20:33:05;;;;;;;46.92;14.57;;;;;;;;;;5083833;28;20501;-55
2022/01/26 20:35:32;;;;;;;50.15;16.00;;;;;;;;;;5077019;28;20056;-60
2022/01/26 20:37:58;;;;;;;50.55;16.05;;;;;;;;;;5082045;28;20131;-59
2022/01/26 20:40:26;;;;;;;49.38;15.43;;;;;;;;;;5077248;28;20048;-58